Latest Weather Observations for Rhyll

IDV60801

Issued at 1:31 pm EDT Monday 22 December 2014 (issued every 30 minutes, with the page automatically refreshed every 10 minutes)

About weather observations | Map of weather stations | Latest weather observations for VIC | Other Formats
Station Details ID: 086373 Name: RHYLL Lat: -38.46 Lon: 145.31 Height: 13.4 m
Data from the previous 72 hours. | See also: Recent months at Rhyll
Date/Time
EDT
Temp
°C
App
Temp
°C
Dew
Point
Rel
Hum
%
Delta-T
°C
Wind Press
QNH
hPa
Press
MSL
hPa
Rain
since 9 am
mm
Dir
 
Spd
km/h
Gust
km/h
Spd
kts
Gust
kts
22/01:30pm 24.3 24.5 18.5 70 3.7 SSE 15 19 8 10 1011.8 1011.8 0.0
22/01:00pm 24.3 24.9 18.7 71 3.6 S 13 17 7 9 1012.3 1012.3 0.0
22/12:30pm 22.8 22.3 17.9 74 3.1 SSE 17 22 9 12 1012.1 1012.1 0.0
22/12:00pm 20.9 21.3 17.3 80 2.2 SE 11 15 6 8 1012.3 1012.3 0.0
22/11:30am 21.0 21.7 17.0 78 2.4 SE 9 15 5 8 1012.6 1012.6 0.0
22/11:00am 21.8 22.8 17.8 78 2.5 SE 9 13 5 7 1013.3 1013.3 0.0
22/10:30am 19.8 20.6 17.2 85 1.6 SE 9 13 5 7 1013.5 1013.5 0.0
22/10:00am 19.1 18.8 16.5 85 1.6 ESE 13 22 7 12 1013.5 1013.5 0.0
22/09:30am 18.7 19.3 16.9 89 1.1 ESE 9 13 5 7 1013.7 1013.7 0.0
22/09:00am 18.2 18.8 16.7 91 0.9 ESE 9 15 5 8 1013.6 1013.6 0.0
22/08:30am 17.8 17.1 16.5 92 0.8 ESE 15 19 8 10 1013.3 1013.3 0.0
22/08:00am 17.4 17.3 16.1 92 0.8 SE 11 20 6 11 1013.1 1013.1 0.0
22/07:30am 17.2 16.4 16.1 93 0.7 SSE 15 20 8 11 1013.2 1013.2 0.0
22/07:00am 17.0 16.0 15.7 92 0.8 SSE 15 24 8 13 1013.0 1013.0 0.0
22/06:30am 17.2 16.3 15.9 92 0.8 SSE 15 20 8 11 1012.9 1012.9 0.0
22/06:00am 16.7 15.7 15.5 93 0.7 SSE 15 22 8 12 1012.7 1012.7 0.0
22/05:30am 16.7 15.4 15.7 94 0.6 SSE 17 22 9 12 1012.6 1012.6 0.0
22/05:00am 16.7 15.7 15.7 94 0.6 SSE 15 22 8 12 1012.5 1012.5 0.0
22/04:30am 16.7 15.7 15.7 94 0.6 SSE 15 22 8 12 1012.6 1012.6 0.0
22/04:00am 16.9 16.0 15.9 94 0.6 SSE 15 22 8 12 1012.5 1012.5 0.0
22/03:30am 16.7 16.1 15.7 94 0.6 SSE 13 20 7 11 1012.7 1012.7 0.0
22/03:00am 16.8 15.5 15.8 94 0.6 SSE 17 24 9 13 1013.0 1013.0 0.0
22/02:30am 16.8 16.3 15.8 94 0.6 SSE 13 20 7 11 1013.5 1013.5 0.0
22/02:00am 16.8 16.6 15.8 94 0.6 SSE 11 17 6 9 1013.4 1013.4 0.0
22/01:30am 16.8 16.6 15.8 94 0.6 SSE 11 19 6 10 1013.7 1013.7 0.0
22/01:00am 16.7 16.1 15.6 93 0.6 SSE 13 19 7 10 1013.8 1013.8 0.0
22/12:30am 17.1 16.3 16.0 93 0.6 S 15 20 8 11 1014.0 1014.0 0.0
22/12:00am 17.3 16.8 16.0 92 0.8 S 13 20 7 11 1014.2 1014.2 0.0
 
Date/Time
EDT
Temp
°C
App
Temp
°C
Dew
Point
Rel
Hum
%
Delta-T
°C
Wind Press
QNH
hPa
Press
MSL
hPa
Rain
since 9 am
mm
Dir
 
Spd
km/h
Gust
km/h
Spd
kts
Gust
kts
21/11:30pm 17.6 17.2 16.3 92 0.8 S 13 20 7 11 1014.3 1014.3 0.0
21/11:00pm 17.5 17.5 16.2 92 0.8 S 11 15 6 8 1014.2 1014.2 0.0
21/10:30pm 17.8 17.9 16.5 92 0.8 S 11 17 6 9 1014.3 1014.3 0.0
21/10:00pm 18.1 17.4 16.4 90 1.0 S 15 24 8 13 1013.9 1013.9 0.0
21/09:30pm 18.9 17.6 15.8 82 1.8 SSW 17 24 9 13 1013.5 1013.5 0.0
21/09:00pm 20.1 18.5 15.1 73 2.9 SSW 17 24 9 13 1013.0 1013.0 0.0
21/08:30pm 20.3 18.9 15.5 74 2.8 SSW 17 24 9 13 1012.5 1012.5 0.0
21/08:00pm 23.4 24.1 16.2 64 4.4 S 7 11 4 6 1012.4 1012.4 0.0
21/07:30pm 25.2 26.0 16.4 58 5.4 S 7 9 4 5 1012.0 1012.0 0.0
21/07:00pm 24.0 24.4 16.3 62 4.7 SSE 9 11 5 6 1011.8 1011.8 0.0
21/06:30pm 24.5 25.8 17.2 63 4.5 S 6 9 3 5 1011.7 1011.7 0.0
21/06:00pm 25.3 26.6 17.5 62 4.9 S 7 11 4 6 1011.6 1011.6 0.0
21/05:30pm 23.1 24.6 17.6 71 3.4 SSE 6 9 3 5 1011.9 1011.9 0.0
21/05:00pm 23.3 24.3 17.7 71 3.5 SSE 9 15 5 8 1012.1 1012.1 0.0
21/04:30pm 23.5 23.5 18.2 72 3.3 SSE 15 22 8 12 1012.4 1012.4 0.0
21/04:00pm 25.5 26.3 18.2 64 4.6 S 11 15 6 8 1012.6 1012.6 0.0
21/03:30pm 25.9 26.9 18.6 64 4.6 S 11 15 6 8 1012.8 1012.8 0.0
21/03:00pm 25.2 26.7 18.9 68 4.0 S 9 11 5 6 1013.1 1013.1 0.0
21/02:30pm 25.2 27.1 18.9 68 4.0 SSE 7 9 4 5 1013.3 1013.3 0.0
21/02:00pm 24.3 25.6 17.1 64 4.5 SSE 6 7 3 4 1013.6 1013.6 0.0
21/01:30pm 24.7 26.6 17.7 65 4.4 SE 4 6 2 3 1014.0 1014.0 0.0
21/01:00pm 24.0 24.9 15.0 57 5.4 SE 4 6 2 3 1014.2 1014.2 0.0
21/12:30pm 22.9 23.4 15.0 61 4.7 SSE 6 7 3 4 1014.5 1014.5 0.0
21/12:00pm 21.7 22.4 14.6 64 4.2 SSE 4 7 2 4 1014.6 1014.6 0.0
21/11:30am 21.0 21.3 14.4 66 3.9 S 6 7 3 4 1014.6 1014.6 0.0
21/11:00am 23.4 23.7 16.0 63 4.5 E 9 9 5 5 1014.7 1014.7 0.0
21/10:30am 22.6 22.4 15.7 65 4.1 ENE 11 15 6 8 1014.7 1014.7 0.0
21/10:00am 21.0 19.8 15.1 69 3.5 ENE 15 15 8 8 1014.8 1014.8 0.0
21/09:30am 20.3 19.0 14.7 70 3.3 ENE 15 17 8 9 1015.2 1015.2 0.0
21/09:00am 18.7 17.8 13.6 72 2.9 NE 11 13 6 7 1015.4 1015.4 0.0
21/08:30am 17.7 16.3 13.4 76 2.4 NE 13 17 7 9 1015.2 1015.2 0.0
21/08:00am 16.9 15.8 13.2 79 2.1 NNE 11 13 6 7 1015.0 1015.0 0.0
21/07:30am 16.9 16.5 14.0 83 1.6 NE 9 13 5 7 1015.3 1015.3 0.0
21/07:00am 15.6 15.5 13.8 89 1.0 ENE 7 11 4 6 1015.4 1015.4 0.0
21/06:30am 14.1 14.7 13.0 93 0.6 NE 2 6 1 3 1015.4 1015.4 0.0
21/06:00am 13.7 13.2 12.8 94 0.5 NE 7 11 4 6 1015.1 1015.1 0.0
21/05:30am 14.1 13.7 13.1 94 0.6 NE 7 11 4 6 1014.8 1014.8 0.0
21/05:00am 14.3 13.2 13.2 93 0.6 ENE 11 13 6 7 1014.5 1014.5 0.0
21/04:30am 14.1 12.6 13.0 93 0.6 ENE 13 17 7 9 1014.4 1014.4 0.0
21/04:00am 14.1 12.6 13.1 94 0.6 E 13 15 7 8 1014.4 1014.4 0.0
21/03:30am 13.7 12.8 12.6 93 0.6 E 9 11 5 6 1015.0 1015.0 0.0
21/03:00am 14.4 13.7 13.3 93 0.6 E 9 11 5 6 1015.5 1015.5 0.0
21/02:30am 13.8 14.2 12.4 91 0.8 ESE 2 6 1 3 1015.7 1015.7 0.0
21/02:00am 14.2 14.4 12.9 92 0.7 SE 4 6 2 3 1015.9 1015.9 0.0
21/01:30am 14.3 14.5 12.9 91 0.8 SSE 4 7 2 4 1016.4 1016.4 0.0
21/01:00am 14.3 14.1 12.9 91 0.8 SW 6 7 3 4 1016.7 1016.7 0.0
21/12:30am 14.3 13.9 12.9 91 0.8 SSW 7 9 4 5 1017.2 1017.2 0.0
21/12:00am 14.3 14.5 12.9 91 0.8 SW 4 6 2 3 1017.6 1017.6 0.0
 
Date/Time
EDT
Temp
°C
App
Temp
°C
Dew
Point
Rel
Hum
%
Delta-T
°C
Wind Press
QNH
hPa
Press
MSL
hPa
Rain
since 9 am
mm
Dir
 
Spd
km/h
Gust
km/h
Spd
kts
Gust
kts
20/11:30pm 14.3 14.4 12.7 90 0.9 SW 4 6 2 3 1017.8 1017.8 0.0
20/11:00pm 14.7 14.9 12.9 89 1.0 WSW 4 6 2 3 1017.8 1017.8 0.0
20/10:30pm 14.9 14.7 12.9 88 1.1 SW 6 7 3 4 1017.9 1017.9 0.0
20/10:00pm 15.2 15.4 12.9 86 1.3 SSW 4 6 2 3 1017.9 1017.9 0.0
20/09:30pm 15.4 15.2 12.9 85 1.4 SSW 6 9 3 5 1017.9 1017.9 0.0
20/09:00pm 15.6 15.1 12.7 83 1.6 SSW 7 11 4 6 1017.8 1017.8 0.0
20/08:30pm 16.0 15.7 12.6 80 1.9 S 6 9 3 5 1017.8 1017.8 0.0
20/08:00pm 17.1 16.8 12.6 75 2.5 S 6 11 3 6 1017.8 1017.8 0.0
20/07:30pm 17.9 17.6 13.4 75 2.5 SSW 7 17 4 9 1017.5 1017.5 0.0
20/07:00pm 17.9 17.1 12.8 72 2.8 SSW 9 17 5 9 1017.2 1017.2 0.0
20/06:30pm 18.3 17.0 12.5 69 3.2 SSW 11 19 6 10 1017.2 1017.2 0.0
20/06:00pm 19.5 19.3 13.7 69 3.3 S 7 17 4 9 1017.1 1017.1 0.0
20/05:30pm 19.1 18.3 12.8 67 3.5 S 9 19 5 10 1017.3 1017.3 0.0
20/05:00pm 19.6 18.2 13.3 67 3.6 S 13 24 7 13 1017.3 1017.3 0.0
20/04:30pm 19.1 17.4 12.4 65 3.7 SSW 13 20 7 11 1017.6 1017.6 0.0
20/04:00pm 19.7 18.5 12.7 64 3.9 SSW 11 19 6 10 1017.9 1017.9 0.0
20/03:30pm 19.2 17.2 11.5 61 4.2 SSW 13 22 7 12 1018.1 1018.1 0.0
20/03:00pm 19.5 17.9 12.8 65 3.8 SW 13 24 7 13 1018.4 1018.4 0.0
20/02:30pm 18.3 16.6 11.1 63 3.9 W 11 19 6 10 1018.9 1018.9 0.0
20/02:00pm 18.4 15.7 10.5 60 4.2 SSW 15 28 8 15 1018.7 1018.7 0.0
20/01:30pm 20.0 17.9 11.2 57 4.8 SW 13 22 7 12 1018.7 1018.7 0.0
20/01:00pm 19.0 16.9 9.8 55 4.9 W 11 20 6 11 1018.9 1018.9 0.0
20/12:30pm 19.6 17.7 10.6 56 4.9 WSW 11 20 6 11 1019.0 1019.0 0.0
20/12:00pm 19.0 17.4 10.3 57 4.7 WSW 9 19 5 10 1018.9 1018.9 0.0
20/11:30am 18.2 16.8 10.8 62 4.0 W 9 20 5 11 1019.0 1019.0 0.0
20/11:00am 18.5 17.5 11.1 62 4.0 WNW 7 17 4 9 1018.9 1018.9 0.0
20/10:30am 17.4 15.5 10.5 64 3.7 NW 11 20 6 11 1019.1 1019.1 0.0
20/10:00am 17.3 16.0 11.1 67 3.3 NW 9 17 5 9 1019.1 1019.1 0.0
20/09:30am 17.0 15.9 10.8 67 3.3 WNW 7 13 4 7 1019.0 1019.0 0.0
20/09:00am 15.9 14.8 10.7 71 2.8 W 7 13 4 7 1018.9 1018.9 0.0
20/08:30am 15.6 14.4 10.4 71 2.7 W 7 13 4 7 1018.6 1018.6 0.0
20/08:00am 15.3 14.8 10.9 75 2.3 W 4 9 2 5 1018.3 1018.3 0.0
20/07:30am 15.1 14.6 10.9 76 2.2 W 4 7 2 4 1018.1 1018.1 0.0
20/07:00am 14.6 13.7 10.8 78 2.0 W 6 9 3 5 1018.0 1018.0 0.0
20/06:30am 14.2 13.3 10.8 80 1.8 W 6 9 3 5 1017.7 1017.7 0.0
20/06:00am 14.2 13.3 10.8 80 1.8 W 6 9 3 5 1017.5 1017.5 0.0
20/05:30am 14.2 13.3 10.6 79 1.9 W 6 9 3 5 1017.5 1017.5 0.0
20/05:00am 14.1 13.2 10.5 79 1.9 W 6 9 3 5 1017.4 1017.4 0.0
20/04:30am 13.5 12.8 10.1 80 1.8 WNW 4 7 2 4 1017.3 1017.3 0.0
20/04:00am 13.2 11.9 9.3 77 2.0 W 6 7 3 4 1017.5 1017.5 0.0
20/03:30am 13.1 11.8 9.2 77 2.0 W 6 7 3 4 1017.5 1017.5 0.0
20/03:00am 13.4 12.0 9.5 77 2.0 WSW 7 9 4 5 1017.7 1017.7 0.0
20/02:30am 13.1 11.9 9.4 78 1.9 WSW 6 9 3 5 1017.9 1017.9 0.0
20/02:00am 13.0 11.7 9.3 78 1.9 WSW 6 9 3 5 1018.1 1018.1 0.0
20/01:30am 13.0 11.6 8.9 76 2.1 W 6 9 3 5 1018.5 1018.5 0.0
20/01:00am 13.7 12.2 9.0 73 2.4 WSW 7 9 4 5 1018.6 1018.6 0.0
20/12:30am 13.9 12.3 8.7 71 2.6 SW 7 13 4 7 1018.8 1018.8 0.0
20/12:00am 14.2 11.8 8.6 69 2.8 SW 11 17 6 9 1019.1 1019.1 0.0
 
Date/Time
EDT
Temp
°C
App
Temp
°C
Dew
Point
Rel
Hum
%
Delta-T
°C
Wind Press
QNH
hPa
Press
MSL
hPa
Rain
since 9 am
mm
Dir
 
Spd
km/h
Gust
km/h
Spd
kts
Gust
kts
19/11:30pm 14.2 11.8 8.6 69 2.8 SW 11 19 6 10 1019.5 1019.5 0.0
19/11:00pm 14.2 12.2 8.6 69 2.8 WSW 9 15 5 8 1019.7 1019.7 0.0
19/10:30pm 14.5 12.1 8.7 68 2.9 SW 11 19 6 10 1019.7 1019.7 0.0
19/10:00pm 14.4 12.9 9.2 71 2.6 SW 7 13 4 7 1019.6 1019.6 0.0
19/09:30pm 14.3 12.8 9.3 72 2.6 WSW 7 13 4 7 1019.7 1019.7 0.0
19/09:00pm 14.2 12.7 8.6 69 2.8 SW 6 9 3 5 1019.7 1019.7 0.0
19/08:30pm 14.7 12.2 8.2 65 3.3 SW 11 17 6 9 1019.6 1019.6 0.0
19/08:00pm 15.3 12.5 8.5 64 3.4 SW 13 20 7 11 1019.4 1019.4 0.0
19/07:30pm 15.5 12.6 8.3 62 3.6 SW 13 24 7 13 1019.1 1019.1 0.0
19/07:00pm 16.0 12.4 8.2 60 3.9 SW 17 26 9 14 1018.7 1018.7 0.0
19/06:30pm 16.7 13.4 8.1 57 4.4 SW 15 26 8 14 1018.4 1018.4 0.0
19/06:00pm 16.6 13.5 8.8 60 4.0 SSW 15 24 8 13 1018.1 1018.1 0.0
19/05:30pm 16.8 12.9 8.8 59 4.1 SW 19 30 10 16 1018.2 1018.2 0.0
19/05:00pm 16.4 12.7 8.1 58 4.2 SSW 17 33 9 18 1018.0 1018.0 0.0
19/04:30pm 17.7 15.4 10.3 62 3.9 SW 13 26 7 14 1017.9 1017.9 0.0
19/04:00pm 17.3 13.9 9.2 59 4.2 SSW 17 32 9 17 1017.9 1017.9 0.0
19/03:30pm 17.0 14.1 9.7 62 3.8 SSW 15 24 8 13 1017.8 1017.8 0.0
19/03:00pm 16.8 13.7 8.8 59 4.1 SSW 15 28 8 15 1017.9 1017.9 0.0
19/02:30pm 17.1 13.9 8.5 57 4.4 SSW 15 24 8 13 1017.7 1017.7 0.0
19/02:00pm 16.5 13.2 8.2 58 4.2 SSW 15 26 8 14 1017.7 1017.7 0.0

Other Formats:

Comma delimited format used in spreadsheet applications
http://www.bom.gov.au/fwo/IDV60801/IDV60801.94892.axf

JavaScript Object Notation format (JSON) in row-major order
http://www.bom.gov.au/fwo/IDV60801/IDV60801.94892.json